createdAt,value
2018-07-13T00:02:03.556Z,95153.66
2018-07-13T00:04:30.203Z,95153.39
2018-07-13T00:06:56.913Z,95149.27
2018-07-13T00:09:23.548Z,95142.83
2018-07-13T00:11:50.185Z,95143.38
2018-07-13T00:14:16.837Z,95152.81
2018-07-13T00:16:43.470Z,95147.36
2018-07-13T00:19:10.152Z,95138.64
2018-07-13T00:21:36.799Z,95142.68
2018-07-13T00:24:03.435Z,95140.70
2018-07-13T00:26:30.074Z,95138.33
2018-07-13T00:28:56.756Z,95140.73
2018-07-13T00:31:23.410Z,95138.27
2018-07-13T00:33:50.089Z,95135.77
2018-07-13T00:36:16.725Z,95135.12
2018-07-13T00:38:43.364Z,95135.39
2018-07-13T00:41:10.010Z,95136.41
2018-07-13T00:43:36.640Z,95136.84
2018-07-13T00:46:03.312Z,95142.04
2018-07-13T00:48:29.953Z,95143.64
2018-07-13T00:50:56.654Z,95135.86
2018-07-13T00:53:23.290Z,95136.30
2018-07-13T00:55:49.971Z,95136.79
2018-07-13T00:58:16.706Z,95135.07
2018-07-13T01:00:43.338Z,95142.09
2018-07-13T01:03:10.024Z,95141.17
2018-07-13T01:05:36.657Z,95135.02
2018-07-13T01:08:03.357Z,95137.42
2018-07-13T01:10:29.995Z,95140.27
2018-07-13T01:12:56.670Z,95141.61
2018-07-13T01:15:23.299Z,95138.70
2018-07-13T01:17:50.013Z,95133.63
2018-07-13T01:20:16.642Z,95136.49
2018-07-13T01:22:43.330Z,95140.09
2018-07-13T01:25:09.979Z,95134.95
2018-07-13T01:27:36.635Z,95133.94
2018-07-13T01:30:06.121Z,95132.92
2018-07-13T01:32:32.774Z,95137.10
2018-07-13T01:34:59.448Z,95129.13
2018-07-13T01:37:26.118Z,95133.33
2018-07-13T01:39:52.850Z,95135.77
2018-07-13T01:42:19.491Z,95139.77
2018-07-13T01:44:46.143Z,95140.59
2018-07-13T01:47:12.788Z,95138.50
2018-07-13T01:49:39.436Z,95147.00
2018-07-13T01:52:06.078Z,95142.99
2018-07-13T01:54:32.753Z,95142.73
2018-07-13T01:56:59.439Z,95141.55
2018-07-13T01:59:27.934Z,95147.05
2018-07-13T02:01:52.714Z,95148.66
2018-07-13T02:04:19.367Z,95142.19
2018-07-13T02:06:46.038Z,95142.99
2018-07-13T02:09:13.215Z,95141.28
2018-07-13T02:11:39.843Z,95139.34
2018-07-13T02:14:06.495Z,95137.56
2018-07-13T02:16:33.220Z,95147.81
2018-07-13T02:18:59.860Z,95148.63
2018-07-13T02:21:26.509Z,95144.79
2018-07-13T02:23:53.144Z,95145.78
2018-07-13T02:26:19.775Z,95148.25
2018-07-13T02:28:46.456Z,95148.27
2018-07-13T02:31:13.170Z,95150.53
2018-07-13T02:33:39.788Z,95150.91
2018-07-13T02:36:06.431Z,95155.61
2018-07-13T02:38:33.071Z,95151.76
2018-07-13T02:40:59.711Z,95150.16
2018-07-13T02:43:26.397Z,95158.52
2018-07-13T02:45:53.035Z,95152.13
2018-07-13T02:48:19.699Z,95148.56
2018-07-13T02:50:46.337Z,95149.84
2018-07-13T02:53:13.038Z,95147.25
2018-07-13T02:55:39.676Z,95135.96
2018-07-13T02:58:06.365Z,95142.75
2018-07-13T03:00:33.012Z,95140.66
2018-07-13T03:02:59.645Z,95149.08
2018-07-13T03:05:26.295Z,95149.08
2018-07-13T03:07:52.972Z,95147.69
2018-07-13T03:10:19.608Z,95148.56
2018-07-13T03:12:46.251Z,95142.69
2018-07-13T03:15:12.941Z,95139.39
2018-07-13T03:17:39.675Z,95144.26
2018-07-13T03:20:06.353Z,95150.16
2018-07-13T03:22:32.997Z,95152.86
2018-07-13T03:24:59.687Z,95146.73
2018-07-13T03:27:26.373Z,95145.22
2018-07-13T03:29:53.017Z,95151.45
2018-07-13T03:32:19.664Z,95150.06
2018-07-13T03:34:46.297Z,95160.70
2018-07-13T03:37:12.934Z,95154.07
2018-07-13T03:39:39.614Z,95153.68
2018-07-13T03:42:06.256Z,95156.78
2018-07-13T03:44:32.886Z,95154.11
2018-07-13T03:46:59.576Z,95158.80
2018-07-13T03:49:26.211Z,95152.25
2018-07-13T03:51:52.922Z,95150.20
2018-07-13T03:54:19.576Z,95156.50
2018-07-13T03:56:46.212Z,95156.70
2018-07-13T03:59:12.899Z,95156.83
2018-07-13T04:01:39.572Z,95156.34
2018-07-13T04:04:06.200Z,95162.09
2018-07-13T04:06:32.866Z,95165.95
2018-07-13T04:08:59.504Z,95161.50
2018-07-13T04:11:26.190Z,95162.38
2018-07-13T04:13:52.836Z,95162.09
2018-07-13T04:16:22.819Z,95155.13
2018-07-13T04:18:49.479Z,95156.47
2018-07-13T04:21:16.116Z,95158.42
2018-07-13T04:23:42.753Z,95169.06
2018-07-13T04:26:09.395Z,95162.77
2018-07-13T04:28:36.082Z,95159.52
2018-07-13T04:31:02.750Z,95152.88
2018-07-13T04:33:29.371Z,95159.03
2018-07-13T04:35:56.060Z,95165.00
2018-07-13T04:38:22.696Z,95165.45
2018-07-13T04:40:49.393Z,95157.48
2018-07-13T04:43:16.011Z,95152.99
2018-07-13T04:45:42.694Z,95157.66
2018-07-13T04:48:09.338Z,95153.69
2018-07-13T04:50:36.023Z,95154.31
2018-07-13T04:53:02.628Z,95158.74
2018-07-13T04:55:29.318Z,95153.30
2018-07-13T04:57:55.953Z,95154.14
2018-07-13T05:00:23.923Z,95159.39
2018-07-13T05:02:50.516Z,95151.47
2018-07-13T05:05:17.159Z,95153.37
2018-07-13T05:07:43.937Z,95154.53
2018-07-13T05:10:10.579Z,95158.34
2018-07-13T05:12:37.301Z,95152.69
2018-07-13T05:15:03.920Z,95158.20
2018-07-13T05:17:30.603Z,95153.51
2018-07-13T05:19:58.248Z,95156.88
2018-07-13T05:22:24.963Z,95163.26
2018-07-13T05:24:51.651Z,95161.06
2018-07-13T05:27:18.303Z,95161.55
2018-07-13T05:29:44.942Z,95152.52
2018-07-13T05:32:11.580Z,95163.84
2018-07-13T05:34:38.230Z,95162.72
2018-07-13T05:37:04.905Z,95162.13
2018-07-13T05:39:31.554Z,95166.16
2018-07-13T05:41:58.192Z,95161.17
2018-07-13T05:44:24.907Z,95165.12
2018-07-13T05:46:51.504Z,95164.76
2018-07-13T05:49:18.194Z,95162.41
2018-07-13T05:51:44.886Z,95158.59
2018-07-13T05:54:11.579Z,95162.32
2018-07-13T05:56:38.175Z,95165.60
2018-07-13T05:59:04.820Z,95165.34
2018-07-13T06:01:31.491Z,95164.19
2018-07-13T06:03:58.173Z,95171.13
2018-07-13T06:06:24.773Z,95166.20
2018-07-13T06:08:51.461Z,95166.03
2018-07-13T06:11:18.102Z,95159.47
2018-07-13T06:13:44.739Z,95162.13
2018-07-13T06:16:11.437Z,95165.29
2018-07-13T06:18:38.076Z,95168.37
2018-07-13T06:21:04.711Z,95166.80
2018-07-13T06:23:31.392Z,95168.88
2018-07-13T06:25:58.066Z,95165.32
2018-07-13T06:28:24.700Z,95166.67
2018-07-13T06:30:51.382Z,95159.20
2018-07-13T06:33:18.026Z,95158.56
2018-07-13T06:35:44.674Z,95150.75
2018-07-13T06:38:11.325Z,95153.29
2018-07-13T06:40:39.069Z,95147.47
2018-07-13T06:43:05.719Z,95148.80
2018-07-13T06:45:32.584Z,95150.12
2018-07-13T06:47:59.206Z,95145.67
2018-07-13T06:50:25.964Z,95144.72
2018-07-13T06:52:52.637Z,95132.52
2018-07-13T06:55:19.342Z,95139.36
2018-07-13T06:57:45.964Z,95130.81
2018-07-13T07:00:12.680Z,95144.44
2018-07-13T07:02:39.345Z,95143.48
2018-07-13T07:05:06.058Z,95147.23
2018-07-13T07:07:32.825Z,95150.02
2018-07-13T07:09:59.483Z,95148.31
2018-07-13T07:12:26.201Z,95149.17
2018-07-13T07:14:52.818Z,95158.17
2018-07-13T07:17:19.534Z,95158.86
2018-07-13T07:19:46.210Z,95158.39
2018-07-13T07:22:12.926Z,95161.75
2018-07-13T07:24:39.590Z,95156.46
2018-07-13T07:27:06.300Z,95154.58
2018-07-13T07:29:32.940Z,95152.45
2018-07-13T07:31:59.605Z,95154.65
2018-07-13T07:34:26.284Z,95147.41
2018-07-13T07:36:53.054Z,95133.16
2018-07-13T07:39:19.730Z,95144.19
2018-07-13T07:41:46.413Z,95145.42
2018-07-13T07:44:13.124Z,95141.66
2018-07-13T07:46:39.779Z,95148.64
2018-07-13T07:49:06.425Z,95144.19
2018-07-13T07:51:33.069Z,95151.80
2018-07-13T07:53:59.792Z,95146.34
2018-07-13T07:56:26.498Z,95145.13
2018-07-13T07:58:53.178Z,95143.92
2018-07-13T08:01:19.841Z,95144.84
2018-07-13T08:03:46.602Z,95147.56
2018-07-13T08:06:13.272Z,95137.84
2018-07-13T08:08:39.892Z,95150.61
2018-07-13T08:11:06.576Z,95154.71
2018-07-13T08:13:33.337Z,95152.30
2018-07-13T08:15:59.967Z,95152.67
2018-07-13T08:18:26.623Z,95152.27
2018-07-13T08:20:53.305Z,95141.71
2018-07-13T08:23:19.937Z,95148.42
2018-07-13T08:25:46.639Z,95156.13
2018-07-13T08:28:13.341Z,95152.48
2018-07-13T08:30:39.995Z,95155.98
2018-07-13T08:33:06.703Z,95150.02
2018-07-13T08:35:33.374Z,95144.77
2018-07-13T08:38:00.055Z,95146.80
2018-07-13T08:40:26.765Z,95148.14
2018-07-13T08:42:53.365Z,95147.73
2018-07-13T08:45:20.052Z,95142.42
2018-07-13T08:47:46.708Z,95146.21
2018-07-13T08:50:13.474Z,95143.28
2018-07-13T08:52:40.197Z,95149.91
2018-07-13T08:55:06.801Z,95144.17
2018-07-13T08:57:33.473Z,95149.38
2018-07-13T09:00:00.111Z,95151.45
2018-07-13T09:02:26.739Z,95150.81
2018-07-13T09:04:53.372Z,95147.89
2018-07-13T09:07:20.052Z,95149.88
2018-07-13T09:09:46.722Z,95142.75
2018-07-13T09:12:13.333Z,95145.67
2018-07-13T09:14:39.981Z,95150.88
2018-07-13T09:17:06.768Z,95150.52
2018-07-13T09:19:33.302Z,95150.63
2018-07-13T09:21:59.942Z,95149.35
2018-07-13T09:24:26.623Z,95141.28
2018-07-13T09:26:53.234Z,95144.84
2018-07-13T09:29:19.866Z,95140.02
2018-07-13T09:31:46.504Z,95135.13
2018-07-13T09:34:13.191Z,95128.24
2018-07-13T09:36:39.824Z,95126.80
2018-07-13T09:39:06.480Z,95121.77
2018-07-13T09:41:33.121Z,95115.61
2018-07-13T09:43:59.756Z,95115.39
2018-07-13T09:46:26.396Z,95110.39
2018-07-13T09:48:53.115Z,95106.08
2018-07-13T09:51:19.783Z,95108.92
2018-07-13T09:53:47.961Z,95111.77
2018-07-13T09:56:13.100Z,95112.25
2018-07-13T09:58:39.731Z,95107.57
2018-07-13T10:01:06.451Z,95105.64
2018-07-13T10:03:33.138Z,95092.89
2018-07-13T10:05:59.818Z,95095.17
2018-07-13T10:08:26.458Z,95092.61
2018-07-13T10:10:53.094Z,95091.33
2018-07-13T10:13:19.782Z,95087.45
2018-07-13T10:15:46.460Z,95087.69
2018-07-13T10:18:13.108Z,95089.61
2018-07-13T10:20:39.813Z,95083.44
2018-07-13T10:23:06.435Z,95080.88
2018-07-13T10:25:33.192Z,95078.80
2018-07-13T10:28:03.100Z,95080.14
2018-07-13T10:30:29.749Z,95082.19
2018-07-13T10:32:56.628Z,95079.85
2018-07-13T10:35:23.434Z,95070.11
2018-07-13T10:37:49.993Z,95061.95
2018-07-13T10:40:16.641Z,95061.00
2018-07-13T10:42:43.326Z,95064.86
2018-07-13T10:45:10.079Z,95064.00
2018-07-13T10:47:36.738Z,95054.42
2018-07-13T10:50:03.369Z,95064.90
2018-07-13T10:52:30.018Z,95063.58
2018-07-13T10:54:56.647Z,95061.83
2018-07-13T10:57:23.287Z,95063.22
2018-07-13T10:59:49.949Z,95062.84
2018-07-13T11:02:16.591Z,95064.75
2018-07-13T11:04:43.226Z,95062.53
2018-07-13T11:07:09.879Z,95061.67
2018-07-13T11:09:36.547Z,95068.09
2018-07-13T11:12:04.251Z,95068.42
2018-07-13T11:14:30.900Z,95053.66
2018-07-13T11:16:57.565Z,95049.66
2018-07-13T11:19:24.258Z,95046.79
2018-07-13T11:21:50.974Z,95049.61
2018-07-13T11:24:17.779Z,95047.16
2018-07-13T11:26:44.406Z,95048.03
2018-07-13T11:29:12.222Z,95048.67
2018-07-13T11:31:38.976Z,95048.71
2018-07-13T11:34:05.606Z,95056.59
2018-07-13T11:36:32.341Z,95055.42
2018-07-13T11:38:58.939Z,95075.53
2018-07-13T11:41:25.576Z,95067.31
2018-07-13T11:43:52.246Z,95076.07
2018-07-13T11:46:18.908Z,95087.00
2018-07-13T11:48:45.552Z,95095.35
2018-07-13T11:51:12.215Z,95101.69
2018-07-13T11:53:38.968Z,95109.24
2018-07-13T11:56:05.642Z,95113.48
2018-07-13T11:58:32.348Z,95098.89
2018-07-13T12:00:58.948Z,95094.63
2018-07-13T12:03:25.571Z,95089.70
2018-07-13T12:05:52.297Z,95098.17
2018-07-13T12:08:18.935Z,95107.34
2018-07-13T12:10:45.582Z,95103.08
2018-07-13T12:13:12.264Z,95111.98
2018-07-13T12:15:42.225Z,95124.60
2018-07-13T12:18:08.969Z,95124.45
2018-07-13T12:20:35.653Z,95132.20
2018-07-13T12:23:02.273Z,95139.66
2018-07-13T12:25:28.923Z,95133.16
2018-07-13T12:27:55.567Z,95132.30
2018-07-13T12:30:22.200Z,95122.74
2018-07-13T12:32:48.877Z,95130.92
2018-07-13T12:35:15.482Z,95132.05
2018-07-13T12:37:42.127Z,95128.45
2018-07-13T12:40:08.780Z,95134.20
2018-07-13T12:42:35.441Z,95128.64
2018-07-13T12:45:02.092Z,95125.65
2018-07-13T12:47:28.759Z,95124.63
2018-07-13T12:49:55.380Z,95118.33
2018-07-13T12:52:22.017Z,95104.94
2018-07-13T12:54:48.669Z,95113.20
2018-07-13T12:57:15.395Z,95109.55
2018-07-13T12:59:43.132Z,95106.30
2018-07-13T13:02:09.796Z,95101.09
2018-07-13T13:04:36.443Z,95093.73
2018-07-13T13:07:03.185Z,95086.80
2018-07-13T13:09:29.810Z,95087.20
2018-07-13T13:11:56.460Z,95089.61
2018-07-13T13:14:23.128Z,95087.61
2018-07-13T13:16:49.780Z,95080.70
2018-07-13T13:19:17.007Z,95078.83
2018-07-13T13:21:43.648Z,95069.96
2018-07-13T13:24:10.277Z,95064.44
2018-07-13T13:26:36.921Z,95059.65
2018-07-13T13:29:03.622Z,95056.53
2018-07-13T13:31:30.345Z,95051.99
2018-07-13T13:33:56.983Z,95037.36
2018-07-13T13:36:23.701Z,95045.44
2018-07-13T13:38:50.336Z,95037.67
2018-07-13T13:41:17.008Z,95041.22
2018-07-13T13:43:45.422Z,95042.58
2018-07-13T13:46:10.724Z,95053.59
2018-07-13T13:48:37.413Z,95052.16
2018-07-13T13:51:06.150Z,95049.51
2018-07-13T13:53:32.844Z,95043.28
2018-07-13T13:55:59.511Z,95044.41
2018-07-13T13:58:26.223Z,95047.02
2018-07-13T14:00:52.929Z,95051.02
2018-07-13T14:03:19.614Z,95051.20
2018-07-13T14:05:46.289Z,95051.50
2018-07-13T14:08:12.914Z,95052.06
2018-07-13T14:10:39.547Z,95062.94
2018-07-13T14:13:06.254Z,95063.07
2018-07-13T14:15:32.890Z,95053.50
2018-07-13T14:17:59.556Z,95061.03
2018-07-13T14:20:26.247Z,95066.50
2018-07-13T14:22:52.899Z,95063.91
2018-07-13T14:25:19.585Z,95069.77
2018-07-13T14:27:46.235Z,95069.11
2018-07-13T14:30:12.928Z,95072.95
2018-07-13T14:32:39.645Z,95069.20
2018-07-13T14:35:06.372Z,95078.09
2018-07-13T14:37:33.024Z,95070.88
2018-07-13T14:39:59.710Z,95069.46
2018-07-13T14:42:26.400Z,95058.11
2018-07-13T14:44:53.091Z,95053.21
2018-07-13T14:47:19.685Z,95058.08
2018-07-13T14:49:47.337Z,95045.86
2018-07-13T14:52:14.334Z,95041.67
2018-07-13T14:54:40.969Z,95043.72
2018-07-13T14:57:07.658Z,95035.75
2018-07-13T14:59:34.373Z,95034.47
2018-07-13T15:02:01.053Z,95037.45
2018-07-13T15:04:27.654Z,95029.86
2018-07-13T15:06:54.410Z,95037.91
2018-07-13T15:09:20.949Z,95029.61
2018-07-13T15:11:47.628Z,95027.83
2018-07-13T15:14:14.225Z,95034.06
2018-07-13T15:16:40.901Z,95033.29
2018-07-13T15:19:07.602Z,95032.23
2018-07-13T15:21:34.238Z,95030.91
2018-07-13T15:24:00.877Z,95031.55
2018-07-13T15:26:27.516Z,95033.04
2018-07-13T15:28:54.229Z,95034.75
2018-07-13T15:31:20.874Z,95041.22
2018-07-13T15:33:47.548Z,95039.02
2018-07-13T15:36:14.189Z,95034.70
2018-07-13T15:38:40.838Z,95034.81
2018-07-13T15:41:07.588Z,95039.63
2018-07-13T15:43:34.223Z,95033.81
2018-07-13T15:46:00.870Z,95043.84
2018-07-13T15:48:27.521Z,95042.44
2018-07-13T15:50:54.153Z,95047.77
2018-07-13T15:53:20.837Z,95047.55
2018-07-13T15:55:47.505Z,95045.42
2018-07-13T15:58:14.140Z,95044.77
2018-07-13T16:00:40.776Z,95046.52
2018-07-13T16:03:07.472Z,95040.80
2018-07-13T16:05:34.247Z,95037.70
2018-07-13T16:08:00.866Z,95036.77
2018-07-13T16:10:27.559Z,95039.80
2018-07-13T16:12:54.227Z,95032.87
2018-07-13T16:15:20.863Z,95026.78
2018-07-13T16:17:47.503Z,95025.38
2018-07-13T16:20:14.134Z,95024.41
2018-07-13T16:22:41.156Z,95020.94
2018-07-13T16:25:07.771Z,95023.72
2018-07-13T16:27:34.437Z,95025.22
2018-07-13T16:30:01.034Z,95025.31
2018-07-13T16:32:28.155Z,95029.14
2018-07-13T16:34:54.800Z,95030.80
2018-07-13T16:37:21.446Z,95038.05
2018-07-13T16:39:48.177Z,95030.40
2018-07-13T16:42:14.882Z,95034.84
2018-07-13T16:44:41.489Z,95029.87
2018-07-13T16:47:08.134Z,95038.62
2018-07-13T16:49:34.819Z,95041.06
2018-07-13T16:52:01.466Z,95049.02
2018-07-13T16:54:28.151Z,95037.70
2018-07-13T16:56:54.790Z,95033.40
2018-07-13T16:59:21.485Z,95043.20
2018-07-13T17:01:48.133Z,95034.97
2018-07-13T17:04:14.812Z,95039.34
2018-07-13T17:06:41.536Z,95046.17
2018-07-13T17:09:08.175Z,95050.03
2018-07-13T17:11:34.863Z,95050.12
2018-07-13T17:14:01.572Z,95046.64
2018-07-13T17:16:28.181Z,95055.95
2018-07-13T17:18:54.874Z,95047.98
2018-07-13T17:21:21.521Z,95045.25
2018-07-13T17:23:48.150Z,95047.52
2018-07-13T17:26:14.894Z,95049.63
2018-07-13T17:28:41.526Z,95060.74
2018-07-13T17:31:08.152Z,95057.58
2018-07-13T17:33:34.838Z,95060.31
2018-07-13T17:36:01.528Z,95064.05
2018-07-13T17:38:28.164Z,95064.05
2018-07-13T17:40:54.859Z,95063.94
2018-07-13T17:43:21.500Z,95067.04
2018-07-13T17:45:48.144Z,95065.21
2018-07-13T17:48:14.790Z,95061.35
2018-07-13T17:50:41.428Z,95065.81
2018-07-13T17:53:08.063Z,95069.76
2018-07-13T17:55:34.710Z,95073.44
2018-07-13T17:58:01.354Z,95077.63
2018-07-13T18:00:28.020Z,95084.69
2018-07-13T18:02:54.630Z,95089.73
2018-07-13T18:05:21.264Z,95092.08
2018-07-13T18:07:49.876Z,95093.53
2018-07-13T18:10:14.569Z,95096.26
2018-07-13T18:12:41.270Z,95095.24
2018-07-13T18:15:07.853Z,95099.63
2018-07-13T18:17:34.526Z,95102.08
2018-07-13T18:20:01.131Z,95107.77
2018-07-13T18:22:27.786Z,95110.69
2018-07-13T18:24:54.426Z,95111.97
2018-07-13T18:27:21.062Z,95111.77
2018-07-13T18:29:47.707Z,95113.97
2018-07-13T18:32:14.348Z,95123.03
2018-07-13T18:34:40.998Z,95128.45
2018-07-13T18:37:07.731Z,95132.09
2018-07-13T18:39:34.372Z,95136.81
2018-07-13T18:42:01.015Z,95138.34
2018-07-13T18:44:27.665Z,95146.10
2018-07-13T18:46:54.330Z,95148.06
2018-07-13T18:49:21.005Z,95151.98
2018-07-13T18:51:48.981Z,95154.73
2018-07-13T18:54:14.299Z,95153.31
2018-07-13T18:56:40.941Z,95158.79
2018-07-13T18:59:07.601Z,95156.08
2018-07-13T19:01:34.286Z,95156.13
2018-07-13T19:04:00.927Z,95165.50
2018-07-13T19:06:30.553Z,95168.20
2018-07-13T19:08:57.195Z,95164.48
2018-07-13T19:11:23.836Z,95171.38
2018-07-13T19:13:50.518Z,95160.78
2018-07-13T19:16:17.114Z,95166.66
2018-07-13T19:18:43.760Z,95164.88
2018-07-13T19:21:10.435Z,95169.88
2018-07-13T19:23:37.119Z,95168.89
2018-07-13T19:26:03.747Z,95173.48
2018-07-13T19:28:30.403Z,95168.23
2018-07-13T19:30:57.156Z,95167.00
2018-07-13T19:33:23.725Z,95173.59
2018-07-13T19:35:50.325Z,95169.73
2018-07-13T19:38:16.953Z,95170.33
2018-07-13T19:40:43.589Z,95169.78
2018-07-13T19:43:10.216Z,95169.10
2018-07-13T19:45:36.856Z,95164.92
2018-07-13T19:48:03.519Z,95157.83
2018-07-13T19:50:30.162Z,95167.14
2018-07-13T19:52:56.804Z,95167.66
2018-07-13T19:55:23.429Z,95162.42
2018-07-13T19:57:50.073Z,95163.90
2018-07-13T20:00:16.713Z,95166.58
2018-07-13T20:02:43.357Z,95174.05
2018-07-13T20:05:09.994Z,95170.47
2018-07-13T20:07:36.639Z,95172.79
2018-07-13T20:10:03.292Z,95166.73
2018-07-13T20:12:29.929Z,95164.50
2018-07-13T20:14:57.112Z,95176.19
2018-07-13T20:17:23.758Z,95167.70
2018-07-13T20:19:50.394Z,95175.83
2018-07-13T20:22:17.044Z,95175.89
2018-07-13T20:24:43.692Z,95173.41
2018-07-13T20:27:10.334Z,95176.94
2018-07-13T20:29:36.964Z,95177.77
2018-07-13T20:32:03.613Z,95175.52
2018-07-13T20:34:30.238Z,95177.28
2018-07-13T20:36:56.887Z,95172.02
2018-07-13T20:39:23.658Z,95172.12
2018-07-13T20:41:50.221Z,95171.69
2018-07-13T20:44:16.859Z,95176.14
2018-07-13T20:46:43.509Z,95180.08
2018-07-13T20:49:10.148Z,95173.94
2018-07-13T20:51:36.828Z,95185.19
2018-07-13T20:54:03.419Z,95184.31
2018-07-13T20:56:30.064Z,95189.88
2018-07-13T20:58:56.710Z,95186.13
2018-07-13T21:01:23.353Z,95188.15
2018-07-13T21:03:49.995Z,95201.38
2018-07-13T21:06:16.634Z,95192.00
2018-07-13T21:08:43.272Z,95190.39
2018-07-13T21:11:09.895Z,95191.20
2018-07-13T21:13:36.539Z,95186.16
2018-07-13T21:16:03.184Z,95187.17
2018-07-13T21:18:30.919Z,95177.47
2018-07-13T21:20:57.735Z,95180.68
2018-07-13T21:23:24.313Z,95178.25
2018-07-13T21:25:50.962Z,95179.16
2018-07-13T21:28:17.598Z,95177.83
2018-07-13T21:30:44.253Z,95182.03
2018-07-13T21:33:10.909Z,95186.49
2018-07-13T21:35:37.545Z,95184.72
2018-07-13T21:38:04.182Z,95187.29
2018-07-13T21:40:30.811Z,95183.30
2018-07-13T21:42:58.176Z,95179.76
2018-07-13T21:45:24.866Z,95186.73
2018-07-13T21:47:51.464Z,95180.79
2018-07-13T21:50:18.097Z,95176.61
2018-07-13T21:52:44.765Z,95180.91
2018-07-13T21:55:11.397Z,95173.83
2018-07-13T21:57:37.997Z,95177.93
2018-07-13T22:00:04.679Z,95176.75
2018-07-13T22:02:31.352Z,95173.96
2018-07-13T22:04:58.001Z,95162.57
2018-07-13T22:07:24.635Z,95165.55
2018-07-13T22:09:51.282Z,95164.51
2018-07-13T22:12:17.918Z,95169.39
2018-07-13T22:14:45.854Z,95170.12
2018-07-13T22:17:11.199Z,95164.55
2018-07-13T22:19:37.862Z,95161.03
2018-07-13T22:22:07.550Z,95167.31
2018-07-13T22:24:34.189Z,95162.89
2018-07-13T22:27:00.841Z,95169.86
2018-07-13T22:29:27.516Z,95167.77
2018-07-13T22:31:54.122Z,95171.31
2018-07-13T22:34:20.770Z,95174.67
2018-07-13T22:36:47.438Z,95174.73
2018-07-13T22:39:14.102Z,95181.02
2018-07-13T22:41:40.704Z,95180.80
2018-07-13T22:44:07.359Z,95177.52
2018-07-13T22:46:33.996Z,95178.40
2018-07-13T22:49:00.645Z,95174.79
2018-07-13T22:51:27.289Z,95180.28
2018-07-13T22:53:53.940Z,95169.23
2018-07-13T22:56:20.574Z,95162.44
2018-07-13T22:58:47.216Z,95154.45
2018-07-13T23:01:13.849Z,95158.89
2018-07-13T23:03:40.490Z,95164.41
2018-07-13T23:06:07.230Z,95176.80
2018-07-13T23:08:33.870Z,95173.78
2018-07-13T23:11:00.565Z,95175.24
2018-07-13T23:13:27.191Z,95175.30
2018-07-13T23:15:53.840Z,95176.19
2018-07-13T23:18:20.487Z,95170.10
2018-07-13T23:20:47.124Z,95176.05
2018-07-13T23:23:13.759Z,95173.84
2018-07-13T23:25:40.405Z,95166.68
2018-07-13T23:28:07.031Z,95169.84
2018-07-13T23:30:33.710Z,95167.84
2018-07-13T23:33:00.389Z,95175.50
2018-07-13T23:35:27.005Z,95176.11
2018-07-13T23:37:53.629Z,95177.89
2018-07-13T23:40:20.275Z,95172.08
2018-07-13T23:42:46.921Z,95175.36
2018-07-13T23:45:13.567Z,95170.80
2018-07-13T23:47:40.201Z,95171.30
2018-07-13T23:50:06.841Z,95174.29
2018-07-13T23:52:33.490Z,95178.35
2018-07-13T23:55:00.134Z,95178.35
2018-07-13T23:57:26.854Z,95181.26
2018-07-13T23:59:53.503Z,95179.72
